Date,TemperatureHighF,TemperatureAvgF,TemperatureLowF,DewpointHighF,DewpointAvgF,DewpointLowF,HumidityHigh,HumidityAvg,HumidityLow,PressureMaxIn,PressureMinIn,WindSpeedMaxMPH,WindSpeedAvgMPH,GustSpeedMaxMPH,PrecipitationSumIn
2013-1-1,51,48,43,40,37,32,66,65,60,30.14,29.93,3,0,6,1.32
2013-1-2,51,44,39,40,33,27,68,65,61,30.15,29.93,12,4,15,0.08
2013-1-3,45,40,37,32,29,26,69,65,59,30.32,30.13,11,3,18,0.00
2013-1-4,50,38,29,26,22,17,70,57,29,30.40,30.30,11,2,18,0.00
2013-1-5,49,38,27,33,24,16,69,59,41,30.40,30.27,4,0,6,0.01
2013-1-6,49,43,40,37,33,30,68,67,63,30.30,30.15,11,2,18,0.01
2013-1-7,57,44,31,32,29,20,70,58,36,30.38,30.25,6,1,14,0.00
2013-1-8,52,46,39,39,34,29,67,63,58,30.41,30.30,9,2,14,0.00
2013-1-9,65,57,50,51,44,38,65,64,62,30.42,30.32,4,1,8,0.00
2013-1-10,68,62,57,55,49,46,65,64,59,30.38,30.20,12,1,13,0.06
2013-1-11,69,63,60,55,50,47,65,62,58,30.20,30.09,5,0,12,0.32
2013-1-12,74,64,58,59,51,45,67,63,57,30.14,30.02,5,0,15,0.01
2013-1-13,72,65,58,58,52,44,65,62,59,30.09,29.98,5,0,11,0.02
2013-1-14,65,57,48,52,44,35,64,62,59,30.12,29.99,6,1,15,0.65
2013-1-15,59,54,48,48,42,36,66,65,63,30.10,29.95,5,0,12,0.44
2013-1-16,64,58,52,53,45,40,68,63,59,29.99,29.87,9,1,12,0.56
2013-1-17,53,46,38,41,35,26,67,64,61,30.24,29.72,12,3,23,0.66
2013-1-18,57,41,31,32,26,20,70,58,31,30.51,30.27,5,1,14,0.00
2013-1-19,56,41,29,35,25,18,69,56,34,30.46,30.23,6,0,10,0.01
2013-1-20,60,44,30,39,29,19,68,58,44,30.23,30.10,8,1,15,0.01
2013-1-21,55,42,31,34,26,19,69,53,40,30.17,30.08,15,2,20,0.00
2013-1-22,42,35,29,21,16,11,62,46,34,30.33,30.16,14,4,23,0.00
2013-1-23,54,40,26,37,24,14,70,54,41,30.40,30.18,11,2,15,0.00
2013-1-24,50,46,36,39,28,12,67,50,23,30.35,30.13,17,4,20,0.00
2013-1-25,41,36,32,27,19,12,69,50,42,30.39,30.15,15,2,21,0.00
2013-1-26,56,44,36,33,28,25,69,54,31,30.29,30.15,11,3,15,0.00
2013-1-27,52,44,39,34,31,29,68,61,51,30.46,30.28,10,2,14,0.00
2013-1-28,56,47,43,44,35,30,67,64,61,30.42,30.27,8,1,10,0.00
2013-1-29,74,58,42,57,44,29,64,61,57,30.27,29.94,3,0,12,0.06
2013-1-30,70,61,44,57,47,33,67,60,57,29.93,29.53,18,4,33,1.86
2013-1-31,47,40,34,31,26,24,67,57,42,30.16,29.78,19,8,35,0.00
2013-2-1,41,36,27,30,17,5,66,48,25,30.38,30.12,15,4,21,0.00
2013-2-2,52,37,24,34,20,11,70,54,25,30.37,30.13,15,1,22,0.18
2013-2-3,55,44,34,36,28,22,66,53,32,30.14,29.99,21,6,32,0.00
2013-2-4,51,41,30,33,27,20,69,59,42,30.13,30.00,8,0,10,0.00
2013-2-5,59,47,32,45,35,21,68,63,60,30.05,29.97,11,1,13,0.00
2013-2-6,68,52,39,43,34,27,66,54,29,30.18,30.03,7,0,10,0.00
2013-2-7,49,46,43,37,33,32,67,62,57,30.13,29.91,11,2,19,0.31
2013-2-8,55,48,39,43,36,29,68,63,59,30.17,29.92,16,2,18,0.04
2013-2-9,64,45,32,35,28,20,72,55,28,30.30,30.14,3,0,8,0.00
2013-2-10,60,50,41,46,36,30,67,61,54,30.31,30.03,11,2,18,1.23
2013-2-11,58,52,48,46,40,36,67,63,59,30.11,30.02,4,1,10,0.62
2013-2-12,56,49,46,40,36,33,67,61,46,30.11,29.84,7,1,16,0.28
2013-2-13,53,46,40,41,34,29,71,64,60,29.96,29.73,21,4,25,0.05
2013-2-14,57,44,37,36,31,25,68,60,39,30.08,29.96,11,3,17,0.00
2013-2-15,61,46,31,39,30,20,68,56,36,30.12,29.98,11,2,17,0.00
2013-2-16,44,38,31,33,22,11,69,54,34,30.15,29.95,18,5,28,0.00
2013-2-17,45,34,24,21,15,10,69,48,27,30.31,30.15,17,3,19,0.00
2013-2-18,60,42,26,29,24,16,71,51,30,30.37,30.13,12,1,12,0.00
2013-2-19,57,46,40,41,28,19,67,49,26,30.14,30.00,14,4,26,0.34
2013-2-20,50,41,31,20,15,7,64,37,20,30.20,30.11,14,4,20,0.00
2013-2-21,64,49,32,39,24,17,64,39,21,30.19,29.95,7,2,13,0.04
2013-2-22,48,42,41,37,30,28,65,62,60,30.15,30.03,13,4,19,1.42
2013-2-23,51,47,41,37,34,29,65,62,60,30.03,29.84,6,1,13,0.99
2013-2-24,63,51,38,38,32,27,67,51,29,30.03,29.90,10,2,16,0.00
2013-2-25,49,45,39,35,31,27,68,59,49,30.03,29.85,16,5,24,0.02
2013-2-26,51,43,37,40,31,25,68,63,61,29.85,29.56,21,5,25,1.44
2013-2-27,59,48,42,36,33,31,67,57,38,29.89,29.78,14,7,23,0.00
2013-2-28,49,42,37,35,29,25,69,61,50,30.00,29.84,15,6,22,0.00
2013-3-1,41,38,36,28,27,24,68,62,57,30.01,29.95,13,4,16,0.00
2013-3-2,38,36,34,28,26,23,70,66,61,30.04,29.94,14,5,20,0.00
2013-3-3,40,34,28,24,20,18,70,59,46,30.10,30.01,18,5,24,0.00
2013-3-4,58,42,25,33,24,15,71,51,27,30.20,30.00,7,1,12,0.00
2013-3-5,64,53,40,51,41,27,66,63,59,30.06,29.67,24,6,35,0.19
2013-3-6,43,37,33,28,25,19,69,61,54,30.20,29.88,27,8,28,0.00
2013-3-7,56,43,32,33,28,23,69,57,38,30.27,30.17,8,2,16,0.00
2013-3-8,64,47,30,30,26,18,69,49,26,30.32,30.20,6,1,12,0.00
2013-3-9,62,50,35,38,31,25,68,49,33,30.32,30.19,9,1,14,0.00
2013-3-10,70,59,49,42,36,32,63,44,27,30.20,30.04,6,1,17,0.00
2013-3-11,66,57,49,52,44,36,66,63,59,30.05,29.78,7,1,16,1.23
2013-3-12,57,48,39,35,33,29,68,56,42,30.09,29.82,14,5,22,0.01
2013-3-13,54,46,37,33,27,22,69,50,31,30.26,30.09,17,5,28,0.00
2013-3-14,54,42,30,25,19,15,63,43,21,30.38,30.23,11,3,22,0.00
2013-3-15,74,54,32,44,34,21,68,50,33,30.24,29.97,20,3,25,0.00
2013-3-16,76,65,48,43,41,36,66,44,25,29.99,29.84,15,4,25,0.00
2013-3-17,71,61,49,52,46,36,65,58,47,29.98,29.87,12,2,16,0.00
2013-3-18,61,55,47,48,42,34,66,62,59,29.96,29.79,24,2,24,0.31
2013-3-19,62,53,45,36,32,26,67,48,29,30.06,29.86,11,2,17,0.00
2013-3-20,57,49,44,27,21,15,42,34,23,30.12,29.89,16,3,27,0.00
2013-3-21,48,40,31,29,17,5,66,43,24,29.98,29.90,20,4,25,0.00
2013-3-22,51,44,37,34,27,18,59,51,42,30.07,29.96,5,0,8,0.00
2013-3-23,56,49,44,44,36,30,65,62,58,30.02,29.75,9,1,12,0.86
2013-3-24,51,49,44,40,36,31,65,62,59,29.78,29.51,15,3,31,1.19
2013-3-25,44,39,36,30,24,21,62,56,48,30.07,29.69,22,10,32,0.00
2013-3-26,41,37,33,25,24,22,68,60,52,30.29,30.05,15,6,27,0.00
2013-3-27,54,41,30,31,25,20,69,54,34,30.36,30.24,9,2,21,0.00
2013-3-28,60,46,29,34,26,18,68,49,25,30.34,30.23,14,2,21,0.00
2013-3-29,68,52,34,38,31,22,67,47,30,30.33,30.14,9,1,16,0.00
2013-3-30,74,60,48,49,41,34,64,51,38,30.17,29.99,9,1,18,0.41
2013-3-31,69,61,56,54,48,43,64,61,56,30.00,29.83,12,2,23,0.14
2013-4-1,71,63,55,48,43,37,64,50,32,30.00,29.83,10,2,18,0.07
2013-4-2,65,56,48,41,34,28,65,47,30,30.16,30.00,12,2,16,0.00
2013-4-3,62,53,43,41,33,26,66,48,35,30.17,30.06,9,2,16,0.12
2013-4-4,48,43,40,36,31,28,66,62,61,30.14,29.97,14,4,23,0.44
2013-4-5,66,52,40,45,36,28,67,56,36,30.05,29.94,10,2,14,0.12
2013-4-6,73,57,39,43,37,26,66,49,29,30.18,30.05,7,1,11,0.00
2013-4-7,77,63,44,49,45,31,65,53,35,30.19,30.03,6,1,14,0.00
2013-4-8,79,65,52,55,48,38,64,56,43,30.13,30.01,10,1,15,0.00
2013-4-9,83,68,54,58,50,40,64,55,40,30.16,30.03,5,0,12,0.00
2013-4-10,85,70,55,59,52,41,64,54,39,30.08,29.88,8,0,11,0.00
2013-4-11,81,69,58,63,54,43,64,60,54,29.90,29.61,11,1,18,0.78
2013-4-12,68,55,55,51,28,-100,65,46,34,29.89,29.62,13,-104,23,0.18
2013-4-13,76,56,45,45,24,-100,67,40,27,30.01,29.89,12,-104,20,0.00
2013-4-14,62,34,48,47,-14,-100,63,36,56,30.02,29.87,7,-394,15,0.13
2013-4-15,77,64,57,58,50,43,65,60,52,30.10,29.90,6,0,8,0.00
2013-4-16,82,70,59,62,54,45,63,58,50,30.21,30.11,7,1,13,0.00
2013-4-17,85,72,62,63,56,48,63,57,47,30.19,30.03,13,1,22,0.00
2013-4-18,82,71,61,60,55,47,64,56,46,30.04,29.86,7,1,15,0.00
2013-4-19,71,59,46,57,46,36,68,63,58,30.02,29.73,12,3,27,0.53
2013-4-20,64,44,40,38,16,-100,68,46,31,30.22,30.02,12,-126,16,0.00
2013-4-21,69,45,43,43,1,-100,67,34,35,30.31,30.20,11,-264,19,0.00
2013-4-22,71,59,49,47,42,37,64,53,43,30.29,30.12,11,3,23,0.00
2013-4-23,75,60,45,50,41,-100,65,51,39,30.21,30.05,7,-10,15,0.00
2013-4-24,73,26,58,56,-39,-100,62,24,54,30.10,30.03,17,-594,17,0.06
2013-4-25,70,57,46,42,37,32,68,50,26,30.29,30.11,11,3,15,0.00
2013-4-26,77,55,39,49,28,-100,67,45,31,30.36,30.22,11,-74,19,0.00
2013-4-27,71,64,58,53,48,45,63,57,49,30.29,30.11,12,2,18,0.00
2013-4-28,61,58,56,47,45,43,64,62,59,30.16,29.98,5,1,16,1.60
2013-4-29,76,63,56,58,49,44,65,61,47,30.02,29.89,4,0,10,0.00
2013-4-30,80,67,58,60,52,45,65,59,48,30.06,29.93,6,0,11,0.00
2013-5-1,70,64,62,54,49,-100,66,61,58,30.16,30.05,12,-7,22,0.00
2013-5-2,67,62,60,54,49,45,66,63,59,30.16,30.08,17,5,23,0.00
2013-5-3,64,61,59,52,48,44,66,63,59,30.10,29.93,15,5,24,0.01
2013-5-4,61,54,50,49,42,37,66,63,60,29.94,29.82,14,4,23,2.53
2013-5-5,69,52,49,51,31,-100,66,56,49,29.83,29.72,6,-84,12,1.21
2013-5-6,58,50,45,45,34,-100,66,61,60,29.89,29.78,9,-32,12,0.29
2013-5-7,68,56,50,52,37,-100,64,58,54,29.97,29.85,7,-41,12,0.00
2013-5-8,76,46,48,56,6,-100,64,40,47,30.04,29.94,12,-288,18,0.00
2013-5-9,81,63,53,59,38,-100,64,50,42,30.09,30.00,7,-84,14,0.00
2013-5-10,77,68,56,59,53,43,64,59,52,30.06,29.92,9,1,14,0.00
2013-5-11,76,67,59,61,53,46,63,60,58,29.96,29.84,13,2,17,0.05
2013-5-12,70,48,54,49,7,-100,66,36,32,30.07,29.91,11,-245,22,0.00
2013-5-13,69,40,41,38,-2,-100,67,35,29,30.22,30.07,15,-267,20,0.00
2013-5-14,79,52,43,56,14,-100,65,39,40,30.23,30.07,9,-225,17,0.00
2013-5-15,86,50,55,57,13,-100,64,42,34,30.14,29.98,10,-236,20,0.00
2013-5-16,85,70,60,62,54,45,64,56,41,30.06,29.95,8,1,12,0.00
2013-5-17,84,71,58,61,53,44,64,56,39,30.06,29.98,4,0,9,0.07
2013-5-18,75,70,66,61,56,52,63,62,58,30.05,30.00,7,0,13,0.14
2013-5-19,70,67,63,55,53,50,63,60,58,30.07,29.96,5,0,14,0.46
2013-5-20,86,73,62,67,58,49,65,60,51,30.08,29.96,7,0,10,0.00
2013-5-21,89,77,65,68,61,51,64,58,49,30.01,29.85,5,0,7,0.01
2013-5-22,87,76,65,66,59,51,63,56,44,29.94,29.80,13,1,19,0.00
2013-5-23,83,75,68,60,57,53,64,53,41,29.93,29.86,14,3,23,0.00
2013-5-24,75,68,61,55,50,44,64,53,40,30.18,29.94,16,3,23,0.00
2013-5-25,80,65,48,49,44,35,66,49,28,30.29,30.16,9,1,13,0.00
2013-5-26,84,68,51,54,47,37,65,49,30,30.23,30.11,7,1,14,0.00
2013-5-27,87,72,57,60,53,42,64,53,36,30.20,30.06,3,0,10,0.00
2013-5-28,88,76,65,62,57,52,64,54,34,30.15,30.06,5,0,11,0.00
2013-5-29,85,72,63,64,55,-100,64,57,47,30.18,30.07,8,-20,14,0.00
2013-5-30,84,76,67,65,60,52,64,59,50,30.20,30.06,8,1,13,0.00
2013-5-31,88,77,69,65,61,55,64,57,43,30.15,30.02,9,1,14,0.00
2013-6-1,86,77,68,67,62,53,64,60,52,30.06,29.93,6,1,12,0.00
2013-6-2,85,74,68,68,60,54,64,62,56,29.95,29.82,16,1,26,1.45
2013-6-3,85,75,67,66,60,54,65,60,51,29.92,29.82,9,1,14,0.01
2013-6-4,90,77,65,66,60,51,63,56,45,29.96,29.89,4,0,9,0.00
2013-6-5,86,75,69,69,60,55,64,60,55,29.98,29.83,11,1,15,1.97
2013-6-6,80,73,68,65,59,55,64,62,57,29.88,29.71,5,0,8,0.04
2013-6-7,83,72,67,66,57,53,63,60,56,29.82,29.65,19,1,19,0.31
2013-6-8,83,73,66,66,58,52,63,60,54,30.03,29.82,5,0,9,0.01
2013-6-9,83,72,68,67,58,54,63,60,57,30.05,29.96,9,0,22,0.64
2013-6-10,78,72,66,65,57,51,63,60,57,30.01,29.90,14,1,21,0.15
2013-6-11,90,79,72,70,64,56,62,59,52,30.01,29.91,12,3,18,0.00
2013-6-12,93,82,70,73,65,57,64,58,51,30.01,29.91,10,1,12,0.00
2013-6-13,90,82,74,70,65,58,63,57,48,29.93,29.69,16,4,24,0.00
2013-6-14,88,80,66,66,60,52,63,52,41,29.96,29.84,5,0,12,0.01
2013-6-15,87,76,63,62,57,49,63,53,41,30.08,29.95,7,0,12,0.00
2013-6-16,88,76,63,69,60,49,63,58,50,30.11,29.97,5,0,14,0.48
2013-6-17,84,73,68,69,58,54,64,61,57,30.07,29.90,11,0,24,0.64
2013-6-18,83,73,68,68,59,54,63,61,57,29.94,29.82,12,2,22,0.28
2013-6-19,82,74,68,66,60,54,63,61,57,30.04,29.86,6,0,11,0.00
2013-6-20,84,74,65,65,59,52,64,59,51,30.15,30.03,12,1,21,0.01
2013-6-21,85,75,65,64,59,51,63,57,47,30.19,30.10,7,1,13,0.00
2013-6-22,86,75,65,64,58,51,62,56,46,30.18,30.05,9,0,13,0.00
2013-6-23,87,75,67,68,60,53,63,59,53,30.16,30.05,3,0,9,0.02
2013-6-24,84,75,68,68,61,55,64,61,56,30.18,30.07,7,1,11,0.00
2013-6-25,85,76,68,69,61,55,63,60,56,30.12,29.99,9,1,12,0.09
2013-6-26,88,78,69,70,63,56,64,60,52,30.04,29.88,14,1,14,0.34
2013-6-27,86,80,73,70,64,58,63,60,57,29.94,29.76,13,3,21,0.19
2013-6-28,90,80,70,72,64,57,65,59,50,29.83,29.61,12,2,19,0.01
2013-6-29,87,78,72,68,62,57,63,57,45,29.68,29.59,8,1,15,0.00
2013-6-30,87,76,67,67,60,53,64,58,44,29.75,29.65,4,0,10,0.00
2013-7-1,84,74,67,67,59,52,64,61,57,29.87,29.74,7,0,12,0.01
2013-7-2,83,76,70,69,61,55,63,60,58,30.03,29.87,5,0,8,0.12
2013-7-3,74,71,68,60,56,54,63,60,57,30.12,30.01,7,1,11,1.38
2013-7-4,75,71,67,60,57,54,64,62,59,30.14,30.04,7,1,11,0.89
2013-7-5,83,72,69,68,58,55,63,61,57,30.16,30.07,3,0,18,0.80
2013-7-6,83,74,69,68,60,56,64,62,57,30.12,30.03,6,0,22,0.60
2013-7-7,79,74,71,64,60,58,65,61,56,30.14,30.06,4,0,5,0.13
2013-7-8,90,77,71,71,63,58,64,61,52,30.16,30.05,6,0,11,0.00
2013-7-9,89,79,71,71,64,57,63,60,54,30.14,30.01,9,1,13,0.00
2013-7-10,88,79,73,71,64,58,63,60,57,30.06,29.91,12,1,14,0.00
2013-7-11,82,75,72,67,60,56,62,59,57,29.93,29.83,4,0,7,0.02
2013-7-12,87,76,70,70,61,57,65,61,56,29.88,29.81,14,1,21,0.01
2013-8-5,87,75,73,70,52,-100,64,54,52,29.95,0.00,0,-77,9,0.00
2013-8-6,89,78,72,70,62,57,62,58,51,29.97,29.90,6,1,9,0.05
2013-8-7,83,75,74,69,61,59,64,62,57,30.01,29.93,3,0,11,1.27
2013-8-8,83,76,73,68,61,60,65,61,56,30.02,29.96,3,0,5,0.22
2013-8-9,92,80,72,72,65,59,65,60,52,30.05,29.96,8,1,10,0.00
2013-8-10,92,80,72,73,64,59,63,60,53,30.07,30.00,10,1,11,0.14
2013-8-11,90,79,72,71,64,58,64,60,52,30.12,30.01,8,1,12,0.01
2013-8-12,89,77,72,71,62,58,63,61,57,30.07,29.96,8,1,18,0.16
2013-8-13,86,77,71,69,63,58,65,61,57,29.98,29.84,9,2,14,0.01
2013-8-14,84,76,72,68,61,57,64,60,56,29.97,29.84,7,1,10,0.00
2013-8-15,74,70,68,59,57,55,66,62,57,30.04,29.95,16,4,22,0.00
2013-8-16,68,66,62,56,52,48,66,62,59,30.08,29.99,9,4,17,0.07
2013-8-17,66,64,62,54,50,47,66,61,59,30.12,30.05,11,3,22,0.08
2013-8-18,75,70,66,60,56,53,65,61,57,30.16,30.07,6,1,9,0.32
2013-8-19,81,73,69,67,59,57,65,62,57,30.12,30.01,7,1,11,1.21
2013-8-20,81,74,71,67,60,56,63,61,58,30.14,30.04,7,0,10,0.01
2013-8-21,83,74,69,68,59,55,63,61,57,30.20,30.08,5,0,11,0.16
2013-8-22,92,78,69,70,62,56,64,59,48,30.13,30.00,7,0,16,0.06
2013-8-23,90,78,69,70,63,56,66,60,48,30.04,29.92,9,1,12,0.01
2013-8-24,83,76,70,67,61,55,64,60,57,30.20,29.98,13,2,17,0.00
2013-8-25,80,73,64,62,58,50,65,60,51,30.32,30.20,8,1,16,0.00
2013-8-26,83,71,60,64,55,47,64,57,47,30.27,30.12,6,0,11,0.01
2013-8-27,88,72,60,68,57,47,65,59,46,30.15,29.99,8,0,12,0.00
2013-8-28,90,77,66,69,61,53,65,59,50,30.02,29.92,6,0,10,0.01
2013-8-29,91,80,70,71,64,56,63,59,52,29.96,29.87,9,1,15,0.00
2013-8-30,87,79,74,71,64,59,63,60,57,29.97,29.87,7,0,12,0.00
2013-8-31,92,80,71,72,64,57,65,59,51,29.93,29.81,5,0,9,0.06
2013-9-1,85,74,70,70,60,57,65,62,57,29.91,29.81,14,0,21,1.31
2013-9-2,81,73,69,67,59,56,66,62,57,29.94,29.83,5,1,10,0.17
2013-9-3,88,77,70,69,62,57,64,60,53,29.94,29.84,9,1,14,0.01
2013-9-4,88,76,66,68,60,53,65,58,47,30.05,29.92,6,0,9,0.01
2013-9-5,88,76,67,67,60,53,64,58,47,30.09,30.01,6,1,10,0.00
2013-9-6,86,75,66,67,60,53,64,59,52,30.11,30.00,10,1,13,0.01
2013-9-7,88,75,65,69,58,52,63,57,45,30.08,29.95,5,0,6,0.00
2013-9-8,89,76,64,68,60,51,64,58,46,29.98,29.89,7,1,14,0.01
2013-9-9,88,77,67,69,61,54,64,59,50,30.07,29.94,7,0,10,0.00
2013-9-10,88,76,68,69,60,54,63,59,51,30.18,30.07,5,0,9,0.01
2013-9-11,90,77,66,69,60,53,64,56,41,30.18,30.05,4,0,9,0.00
2013-9-12,89,76,66,68,60,52,64,58,48,30.06,29.86,9,1,13,0.00
2013-9-13,85,76,67,64,59,53,64,57,44,29.87,29.76,9,2,17,0.00
2013-9-14,81,67,54,59,51,41,66,57,44,30.03,29.85,8,2,15,0.00
2013-9-15,83,72,61,67,57,47,65,61,57,30.12,30.03,7,1,11,0.00
2013-9-16,88,75,67,67,58,53,63,56,40,30.10,30.00,8,1,12,0.00
2013-9-17,77,70,64,60,56,50,64,61,57,30.19,30.06,12,4,21,0.00
2013-9-18,76,69,64,61,55,49,65,62,56,30.20,30.09,9,2,13,0.00
2013-9-19,85,70,60,65,55,46,64,58,47,30.16,30.03,4,0,7,0.00
2013-9-20,88,73,62,65,57,48,64,58,46,30.05,29.86,7,0,10,0.01
2013-9-21,72,68,65,59,54,51,63,60,59,29.89,29.68,6,1,15,1.68
2013-9-22,80,68,57,62,53,45,65,60,49,29.84,29.72,4,0,7,0.01
2013-9-23,81,68,58,60,53,45,64,60,49,29.98,29.84,9,1,13,0.01
2013-9-24,70,67,64,57,54,50,65,62,59,29.99,29.86,10,2,14,0.04
2013-9-25,66,64,63,52,51,49,64,62,59,29.86,29.80,9,2,13,0.85
2013-9-26,79,67,60,63,53,47,65,61,56,29.98,29.84,7,1,8,0.01
2013-9-27,77,68,58,59,52,45,64,59,49,30.11,29.98,8,1,13,0.00
2013-9-28,74,64,55,56,49,42,65,60,51,30.19,30.08,9,1,14,0.01
2013-9-29,74,62,53,55,48,41,65,60,51,30.12,30.00,9,1,13,0.01
2013-9-30,78,64,54,60,50,42,66,60,50,30.07,29.96,7,0,11,0.01
2013-10-1,82,67,56,63,52,43,65,59,49,30.13,30.01,5,0,6,0.00
2013-10-2,84,69,57,63,54,45,66,59,46,30.13,30.02,4,0,6,0.01
2013-10-3,84,71,62,63,55,49,63,58,47,30.11,30.02,2,0,9,0.00
2013-10-4,87,71,60,68,56,47,65,59,47,30.13,30.04,3,0,8,0.01
2013-10-5,86,72,61,66,56,48,66,58,47,30.09,29.97,6,0,8,0.00
2013-10-6,84,70,61,64,55,48,65,60,51,29.99,29.81,6,0,13,1.62
2013-10-7,72,64,57,57,51,44,65,62,57,29.92,29.78,11,2,16,0.48
2013-10-8,73,64,55,57,50,42,65,61,57,30.11,29.92,15,3,19,0.00
2013-10-9,77,64,55,58,48,43,66,58,44,30.17,30.06,11,1,15,0.00
2013-10-10,78,63,52,58,49,40,66,60,49,30.12,29.98,10,1,16,0.00
2013-10-11,78,64,52,57,48,40,66,58,43,30.03,29.94,10,2,18,0.01
2013-10-12,80,65,52,59,50,40,66,59,47,30.07,29.96,7,1,16,0.01
2013-10-13,82,67,56,61,52,43,67,60,47,30.16,30.05,5,0,11,0.01
2013-10-14,73,66,60,59,53,47,64,62,59,30.17,30.07,11,2,16,0.00
2013-10-15,68,65,63,55,52,49,66,64,61,30.12,30.01,8,1,11,0.00
2013-10-16,74,64,55,59,51,43,66,61,57,30.04,29.93,4,0,5,0.01
2013-10-17,69,65,62,55,52,47,63,61,59,29.93,29.85,8,1,11,0.37
2013-10-18,70,59,52,53,45,40,65,60,52,30.00,29.90,7,1,10,0.01
2013-10-19,63,58,53,51,45,41,65,62,59,29.96,29.91,6,1,8,0.06
2013-10-20,70,55,44,50,39,32,66,56,32,30.05,29.96,5,0,9,0.01
2013-10-21,70,56,43,55,42,31,68,62,53,30.12,29.99,3,0,9,0.01
2013-10-22,72,61,54,55,47,41,65,62,56,30.02,29.82,5,0,9,0.02
2013-10-23,60,53,42,44,39,32,67,59,45,30.07,29.82,19,4,26,0.00
2013-10-24,63,49,37,42,34,25,65,57,38,30.19,30.06,10,1,13,0.01
2013-10-25,56,46,36,38,31,25,68,57,34,30.37,30.20,10,2,15,0.00
2013-10-26,58,40,32,37,27,21,68,60,41,30.34,30.21,4,0,10,0.00
2013-10-30,77,66,60,58,44,-100,62,54,49,30.18,0.00,8,-26,12,0.00
2013-10-31,75,66,57,60,52,43,65,62,60,30.15,29.84,6,0,12,0.00
2013-11-1,75,67,58,57,52,46,64,60,41,29.83,29.68,9,2,22,0.20
2013-11-2,68,56,45,47,40,33,65,55,38,30.04,29.78,13,2,21,0.20
2013-11-3,66,51,42,43,36,30,67,57,33,30.29,30.04,6,0,11,0.00
2013-11-4,62,51,40,41,36,28,67,57,42,30.43,30.29,12,2,17,0.00
2013-11-5,63,53,44,42,37,33,65,56,40,30.45,30.31,15,3,17,0.00
2013-11-6,73,59,51,57,46,37,66,62,56,30.32,30.09,11,1,12,0.01
2013-11-7,62,55,45,48,42,33,66,61,55,30.20,30.01,14,3,23,0.13
2013-11-8,62,48,38,36,31,27,68,54,28,30.33,30.19,6,1,13,0.00
2013-11-9,59,47,36,40,33,24,68,58,39,30.35,30.21,4,0,7,0.00
2013-11-10,70,55,44,44,38,32,67,55,38,30.28,30.17,9,1,14,0.00
2013-11-11,67,50,37,42,32,25,64,53,31,30.30,30.16,9,0,14,0.00
2013-11-12,61,44,33,43,29,18,67,57,44,30.45,30.14,16,3,28,0.00
2013-11-13,50,36,25,24,18,11,70,52,22,30.58,30.45,4,0,10,0.00
2013-11-14,60,39,25,26,21,14,68,52,22,30.51,30.31,4,0,7,0.00
2013-11-15,51,45,34,40,33,24,67,63,54,30.32,30.16,6,0,8,0.01
2013-11-16,61,55,47,48,42,35,66,62,59,30.23,30.12,4,1,9,0.00
2013-11-17,68,62,58,55,49,44,64,61,59,30.15,29.89,5,1,9,0.00
2013-11-18,69,63,52,55,44,34,64,51,32,30.02,29.86,13,3,22,0.00
2013-11-19,59,51,42,37,33,29,66,52,41,30.16,30.00,13,1,14,0.00
2013-11-20,55,48,42,35,32,28,62,53,45,30.33,30.16,17,3,22,0.00
2013-11-21,54,51,48,42,39,35,65,63,55,30.39,30.30,13,3,17,0.00
2013-11-22,64,57,51,51,43,37,64,61,58,30.34,30.15,3,0,9,0.01
2013-11-23,60,52,41,47,39,28,65,62,56,30.24,30.11,13,3,22,0.00
2013-11-24,48,37,29,27,19,14,68,49,27,30.46,30.23,11,1,15,0.00
2013-11-25,44,38,30,24,18,12,69,45,33,30.49,30.22,11,2,19,0.00
2013-11-26,49,40,34,37,28,22,67,64,57,30.21,29.66,11,2,18,0.01
2013-11-27,44,35,28,31,24,18,69,63,57,30.28,29.66,17,5,29,0.00
2013-11-28,50,33,23,27,20,15,70,59,33,30.48,30.27,6,1,10,0.00
2013-11-29,61,39,24,33,21,13,68,52,21,30.53,30.43,4,0,7,0.00
2013-11-30,52,41,34,29,27,24,69,58,39,30.55,30.34,12,2,20,0.00
2013-12-1,57,46,38,40,33,28,67,60,49,30.34,30.02,5,0,8,0.00
2013-12-2,51,48,42,40,35,30,65,63,61,30.02,29.82,2,0,4,0.01
2013-12-3,56,53,50,44,41,39,66,64,62,29.89,29.82,3,0,5,0.00
2013-12-4,72,61,55,58,49,43,68,64,58,30.01,29.89,6,0,9,0.00
2013-12-5,72,67,64,56,54,51,65,62,57,30.05,29.95,4,0,13,0.20
2013-12-6,75,70,56,61,55,42,63,60,57,30.03,29.93,10,2,22,0.04
2013-12-7,56,45,41,42,32,28,67,63,60,30.29,30.02,14,3,16,0.00
2013-12-8,50,45,41,38,33,29,66,63,63,30.29,30.18,10,3,17,0.05
2013-12-9,49,44,40,37,33,29,69,65,63,30.20,30.01,10,1,13,0.00
2013-12-10,50,44,32,39,32,23,69,64,55,30.34,29.95,21,3,29,0.01
2013-12-11,55,39,27,34,25,16,68,58,36,30.45,30.32,5,0,7,0.00
2013-12-12,45,38,30,28,22,18,70,56,38,30.46,30.35,11,2,15,0.00
2013-12-13,58,41,26,33,23,16,71,52,21,30.40,30.17,5,0,6,0.00
2013-12-14,50,48,44,38,35,31,66,63,56,30.18,29.82,7,1,12,0.01
2013-12-15,50,40,33,40,30,24,69,67,61,30.20,29.83,15,5,22,0.00
2013-12-16,55,39,31,33,26,20,69,60,38,30.28,30.19,11,2,14,0.00
2013-12-17,62,45,29,37,29,18,68,55,38,30.24,30.09,17,3,21,0.00
2013-12-18,53,42,32,31,24,17,69,50,26,30.33,30.19,9,2,17,0.00
2013-12-19,64,44,29,34,26,18,69,54,24,30.34,30.19,4,0,7,0.00
2013-12-20,61,48,35,48,36,24,68,64,60,30.23,30.11,5,0,8,0.00
2013-12-21,70,61,50,56,47,37,64,60,58,30.10,29.90,4,1,12,0.00
2013-12-22,70,62,57,56,48,44,65,62,58,30.04,29.86,8,1,15,0.06
2013-12-23,57,48,36,45,37,27,69,65,60,30.25,30.01,13,3,20,0.01
2013-12-24,39,34,29,27,23,19,70,64,51,30.41,30.24,13,3,22,0.00
2013-12-25,44,34,25,25,20,16,71,58,43,30.48,30.34,12,2,16,0.00
2013-12-26,54,41,29,29,26,19,70,56,37,30.39,30.27,6,1,12,0.00
2013-12-27,53,38,28,31,24,16,69,60,39,30.46,30.32,7,0,9,0.00
2013-12-28,34,32,31,22,20,19,63,63,62,30.41,30.34,0,0,4,0.00
2014-1-2,51,37,26,39,24,-100,68,64,60,30.12,29.76,24,-18,33,0.00